sensor_id;sensor_type;location;lat;lon;timestamp;P1;durP1;ratioP1;P2;durP2;ratioP2
32864;SDS011;19219;44.500;11.188;2023-03-19T00:02:19;31.23;;;19.83;;
32864;SDS011;19219;44.500;11.188;2023-03-19T00:04:45;34.85;;;21.10;;
32864;SDS011;19219;44.500;11.188;2023-03-19T00:07:11;32.92;;;21.05;;
32864;SDS011;19219;44.500;11.188;2023-03-19T00:09:38;35.33;;;20.95;;
32864;SDS011;19219;44.500;11.188;2023-03-19T00:12:04;40.38;;;22.30;;
32864;SDS011;19219;44.500;11.188;2023-03-19T00:14:30;34.65;;;21.65;;
32864;SDS011;19219;44.500;11.188;2023-03-19T00:16:55;32.17;;;19.77;;
32864;SDS011;19219;44.500;11.188;2023-03-19T00:19:21;33.22;;;20.60;;
32864;SDS011;19219;44.500;11.188;2023-03-19T00:21:47;41.05;;;24.67;;
32864;SDS011;19219;44.500;11.188;2023-03-19T00:24:12;34.83;;;21.73;;
32864;SDS011;19219;44.500;11.188;2023-03-19T00:26:40;29.17;;;19.00;;
32864;SDS011;19219;44.500;11.188;2023-03-19T00:29:05;31.30;;;20.80;;
32864;SDS011;19219;44.500;11.188;2023-03-19T00:31:31;33.92;;;20.52;;
32864;SDS011;19219;44.500;11.188;2023-03-19T00:33:57;31.85;;;21.35;;
32864;SDS011;19219;44.500;11.188;2023-03-19T00:36:24;32.70;;;21.23;;
32864;SDS011;19219;44.500;11.188;2023-03-19T00:38:51;31.85;;;20.73;;
32864;SDS011;19219;44.500;11.188;2023-03-19T00:41:17;30.13;;;21.02;;
32864;SDS011;19219;44.500;11.188;2023-03-19T00:43:44;29.77;;;19.98;;
32864;SDS011;19219;44.500;11.188;2023-03-19T00:46:10;40.33;;;21.42;;
32864;SDS011;19219;44.500;11.188;2023-03-19T00:48:36;33.63;;;20.35;;
32864;SDS011;19219;44.500;11.188;2023-03-19T00:51:03;45.40;;;21.83;;
32864;SDS011;19219;44.500;11.188;2023-03-19T00:53:30;32.17;;;20.67;;
32864;SDS011;19219;44.500;11.188;2023-03-19T00:55:57;33.90;;;20.38;;
32864;SDS011;19219;44.500;11.188;2023-03-19T00:58:23;33.45;;;19.35;;
32864;SDS011;19219;44.500;11.188;2023-03-19T01:00:51;32.40;;;21.05;;
32864;SDS011;19219;44.500;11.188;2023-03-19T01:03:17;35.10;;;20.40;;
32864;SDS011;19219;44.500;11.188;2023-03-19T01:05:43;29.70;;;19.90;;
32864;SDS011;19219;44.500;11.188;2023-03-19T01:08:12;33.58;;;20.80;;
32864;SDS011;19219;44.500;11.188;2023-03-19T01:10:39;35.80;;;21.70;;
32864;SDS011;19219;44.500;11.188;2023-03-19T01:13:05;31.75;;;20.38;;
32864;SDS011;19219;44.500;11.188;2023-03-19T01:15:33;32.17;;;21.08;;
32864;SDS011;19219;44.500;11.188;2023-03-19T01:18:06;33.95;;;21.40;;
32864;SDS011;19219;44.500;11.188;2023-03-19T01:20:33;34.08;;;22.42;;
32864;SDS011;19219;44.500;11.188;2023-03-19T01:22:59;35.08;;;21.17;;
32864;SDS011;19219;44.500;11.188;2023-03-19T01:25:26;35.67;;;22.05;;
32864;SDS011;19219;44.500;11.188;2023-03-19T01:27:51;38.50;;;21.88;;
32864;SDS011;19219;44.500;11.188;2023-03-19T01:30:17;37.08;;;21.83;;
32864;SDS011;19219;44.500;11.188;2023-03-19T01:32:43;38.15;;;23.77;;
32864;SDS011;19219;44.500;11.188;2023-03-19T01:35:09;58.03;;;33.50;;
32864;SDS011;19219;44.500;11.188;2023-03-19T01:37:35;34.72;;;21.58;;
32864;SDS011;19219;44.500;11.188;2023-03-19T01:40:02;37.40;;;23.23;;
32864;SDS011;19219;44.500;11.188;2023-03-19T01:42:29;29.33;;;21.50;;
32864;SDS011;19219;44.500;11.188;2023-03-19T01:44:56;35.75;;;21.45;;
32864;SDS011;19219;44.500;11.188;2023-03-19T01:47:24;38.85;;;22.50;;
32864;SDS011;19219;44.500;11.188;2023-03-19T01:49:56;39.25;;;23.50;;
32864;SDS011;19219;44.500;11.188;2023-03-19T01:52:24;33.50;;;21.17;;
32864;SDS011;19219;44.500;11.188;2023-03-19T01:54:53;37.92;;;22.38;;
32864;SDS011;19219;44.500;11.188;2023-03-19T01:57:20;35.70;;;21.85;;
32864;SDS011;19219;44.500;11.188;2023-03-19T01:59:48;33.00;;;19.95;;
32864;SDS011;19219;44.500;11.188;2023-03-19T02:02:20;35.53;;;21.58;;
32864;SDS011;19219;44.500;11.188;2023-03-19T02:04:55;37.17;;;21.77;;
32864;SDS011;19219;44.500;11.188;2023-03-19T02:07:30;30.15;;;20.42;;
32864;SDS011;19219;44.500;11.188;2023-03-19T02:09:58;32.75;;;21.25;;
32864;SDS011;19219;44.500;11.188;2023-03-19T02:12:25;33.67;;;21.60;;
32864;SDS011;19219;44.500;11.188;2023-03-19T02:14:51;36.15;;;22.35;;
32864;SDS011;19219;44.500;11.188;2023-03-19T02:17:18;44.67;;;26.95;;
32864;SDS011;19219;44.500;11.188;2023-03-19T02:19:48;40.80;;;25.83;;
32864;SDS011;19219;44.500;11.188;2023-03-19T02:22:21;44.97;;;26.35;;
32864;SDS011;19219;44.500;11.188;2023-03-19T02:27:17;42.03;;;26.25;;
32864;SDS011;19219;44.500;11.188;2023-03-19T02:29:43;39.75;;;25.13;;
32864;SDS011;19219;44.500;11.188;2023-03-19T02:32:09;41.58;;;24.95;;
32864;SDS011;19219;44.500;11.188;2023-03-19T02:34:36;34.83;;;23.40;;
32864;SDS011;19219;44.500;11.188;2023-03-19T02:37:25;39.92;;;25.05;;
32864;SDS011;19219;44.500;11.188;2023-03-19T02:39:57;46.78;;;27.95;;
32864;SDS011;19219;44.500;11.188;2023-03-19T02:42:30;45.08;;;27.65;;
32864;SDS011;19219;44.500;11.188;2023-03-19T02:44:56;44.00;;;25.48;;
32864;SDS011;19219;44.500;11.188;2023-03-19T02:47:22;41.28;;;25.48;;
32864;SDS011;19219;44.500;11.188;2023-03-19T02:49:49;46.20;;;25.52;;
32864;SDS011;19219;44.500;11.188;2023-03-19T02:52:15;41.88;;;26.13;;
32864;SDS011;19219;44.500;11.188;2023-03-19T02:54:40;46.58;;;27.70;;
32864;SDS011;19219;44.500;11.188;2023-03-19T02:57:06;41.53;;;26.23;;
32864;SDS011;19219;44.500;11.188;2023-03-19T02:59:32;43.05;;;26.58;;
32864;SDS011;19219;44.500;11.188;2023-03-19T03:01:58;48.17;;;28.20;;
32864;SDS011;19219;44.500;11.188;2023-03-19T03:04:23;46.75;;;28.70;;
32864;SDS011;19219;44.500;11.188;2023-03-19T03:06:50;45.80;;;27.27;;
32864;SDS011;19219;44.500;11.188;2023-03-19T03:09:16;48.70;;;29.50;;
32864;SDS011;19219;44.500;11.188;2023-03-19T03:11:42;45.75;;;29.60;;
32864;SDS011;19219;44.500;11.188;2023-03-19T03:14:08;51.67;;;30.42;;
32864;SDS011;19219;44.500;11.188;2023-03-19T03:16:35;46.10;;;29.40;;
32864;SDS011;19219;44.500;11.188;2023-03-19T03:19:02;45.60;;;28.25;;
32864;SDS011;19219;44.500;11.188;2023-03-19T03:21:28;43.00;;;26.48;;
32864;SDS011;19219;44.500;11.188;2023-03-19T03:23:54;44.30;;;26.38;;
32864;SDS011;19219;44.500;11.188;2023-03-19T03:26:20;47.05;;;27.35;;
32864;SDS011;19219;44.500;11.188;2023-03-19T03:28:46;50.58;;;29.23;;
32864;SDS011;19219;44.500;11.188;2023-03-19T03:31:12;45.15;;;28.17;;
32864;SDS011;19219;44.500;11.188;2023-03-19T03:33:38;45.65;;;28.77;;
32864;SDS011;19219;44.500;11.188;2023-03-19T03:36:04;44.58;;;28.23;;
32864;SDS011;19219;44.500;11.188;2023-03-19T03:38:31;48.05;;;28.17;;
32864;SDS011;19219;44.500;11.188;2023-03-19T03:40:57;47.67;;;29.60;;
32864;SDS011;19219;44.500;11.188;2023-03-19T03:43:23;49.00;;;29.33;;
32864;SDS011;19219;44.500;11.188;2023-03-19T03:45:49;54.55;;;30.95;;
32864;SDS011;19219;44.500;11.188;2023-03-19T03:48:15;48.08;;;31.00;;
32864;SDS011;19219;44.500;11.188;2023-03-19T03:50:41;45.55;;;29.65;;
32864;SDS011;19219;44.500;11.188;2023-03-19T03:53:07;47.05;;;28.45;;
32864;SDS011;19219;44.500;11.188;2023-03-19T03:55:34;49.50;;;30.40;;
32864;SDS011;19219;44.500;11.188;2023-03-19T03:58:00;47.55;;;28.10;;
32864;SDS011;19219;44.500;11.188;2023-03-19T04:00:26;49.00;;;28.98;;
32864;SDS011;19219;44.500;11.188;2023-03-19T04:02:52;68.65;;;40.53;;
32864;SDS011;19219;44.500;11.188;2023-03-19T04:05:18;48.72;;;29.98;;
32864;SDS011;19219;44.500;11.188;2023-03-19T04:07:44;50.58;;;28.02;;
32864;SDS011;19219;44.500;11.188;2023-03-19T04:10:11;42.05;;;26.90;;
32864;SDS011;19219;44.500;11.188;2023-03-19T04:12:37;53.72;;;28.67;;
32864;SDS011;19219;44.500;11.188;2023-03-19T04:15:04;42.97;;;25.83;;
32864;SDS011;19219;44.500;11.188;2023-03-19T04:17:30;41.67;;;27.23;;
32864;SDS011;19219;44.500;11.188;2023-03-19T04:19:56;42.13;;;26.35;;
32864;SDS011;19219;44.500;11.188;2023-03-19T04:22:21;39.50;;;25.98;;
32864;SDS011;19219;44.500;11.188;2023-03-19T04:24:47;40.15;;;24.73;;
32864;SDS011;19219;44.500;11.188;2023-03-19T04:27:13;47.10;;;27.63;;
32864;SDS011;19219;44.500;11.188;2023-03-19T04:29:38;35.45;;;23.60;;
32864;SDS011;19219;44.500;11.188;2023-03-19T04:32:04;40.90;;;26.30;;
32864;SDS011;19219;44.500;11.188;2023-03-19T04:34:30;40.10;;;24.85;;
32864;SDS011;19219;44.500;11.188;2023-03-19T04:36:56;43.47;;;25.00;;
32864;SDS011;19219;44.500;11.188;2023-03-19T04:39:22;38.22;;;25.08;;
32864;SDS011;19219;44.500;11.188;2023-03-19T04:41:48;43.65;;;25.88;;
32864;SDS011;19219;44.500;11.188;2023-03-19T04:44:14;38.47;;;23.58;;
32864;SDS011;19219;44.500;11.188;2023-03-19T04:46:40;40.72;;;25.42;;
32864;SDS011;19219;44.500;11.188;2023-03-19T04:49:08;37.20;;;25.08;;
32864;SDS011;19219;44.500;11.188;2023-03-19T04:51:34;41.17;;;22.98;;
32864;SDS011;19219;44.500;11.188;2023-03-19T04:53:59;41.08;;;25.25;;
32864;SDS011;19219;44.500;11.188;2023-03-19T04:56:25;42.17;;;25.85;;
32864;SDS011;19219;44.500;11.188;2023-03-19T04:58:51;40.35;;;24.05;;
32864;SDS011;19219;44.500;11.188;2023-03-19T05:01:18;40.25;;;24.75;;
32864;SDS011;19219;44.500;11.188;2023-03-19T05:03:43;35.92;;;24.67;;
32864;SDS011;19219;44.500;11.188;2023-03-19T05:06:09;37.03;;;22.38;;
32864;SDS011;19219;44.500;11.188;2023-03-19T05:08:35;38.85;;;23.30;;
32864;SDS011;19219;44.500;11.188;2023-03-19T05:11:01;35.13;;;22.27;;
32864;SDS011;19219;44.500;11.188;2023-03-19T05:13:27;42.42;;;23.55;;
32864;SDS011;19219;44.500;11.188;2023-03-19T05:15:53;39.67;;;23.30;;
32864;SDS011;19219;44.500;11.188;2023-03-19T05:18:19;46.38;;;26.08;;
32864;SDS011;19219;44.500;11.188;2023-03-19T05:20:45;39.38;;;23.73;;
32864;SDS011;19219;44.500;11.188;2023-03-19T05:23:11;38.67;;;23.25;;
32864;SDS011;19219;44.500;11.188;2023-03-19T05:25:37;40.38;;;25.38;;
32864;SDS011;19219;44.500;11.188;2023-03-19T05:28:03;37.88;;;23.23;;
32864;SDS011;19219;44.500;11.188;2023-03-19T05:30:29;40.35;;;24.73;;
32864;SDS011;19219;44.500;11.188;2023-03-19T05:32:56;38.38;;;22.98;;
32864;SDS011;19219;44.500;11.188;2023-03-19T05:35:22;42.30;;;25.38;;
32864;SDS011;19219;44.500;11.188;2023-03-19T05:37:48;37.60;;;21.90;;
32864;SDS011;19219;44.500;11.188;2023-03-19T05:40:14;33.55;;;20.67;;
32864;SDS011;19219;44.500;11.188;2023-03-19T05:42:40;38.05;;;22.40;;
32864;SDS011;19219;44.500;11.188;2023-03-19T05:45:06;37.65;;;22.20;;
32864;SDS011;19219;44.500;11.188;2023-03-19T05:47:32;36.30;;;22.23;;
32864;SDS011;19219;44.500;11.188;2023-03-19T05:49:59;30.60;;;20.95;;
32864;SDS011;19219;44.500;11.188;2023-03-19T05:52:24;37.70;;;22.20;;
32864;SDS011;19219;44.500;11.188;2023-03-19T05:54:50;32.80;;;20.55;;
32864;SDS011;19219;44.500;11.188;2023-03-19T05:57:16;34.55;;;20.25;;
32864;SDS011;19219;44.500;11.188;2023-03-19T05:59:42;35.20;;;21.50;;
32864;SDS011;19219;44.500;11.188;2023-03-19T06:02:08;37.13;;;20.65;;
32864;SDS011;19219;44.500;11.188;2023-03-19T06:04:33;31.10;;;19.50;;
32864;SDS011;19219;44.500;11.188;2023-03-19T06:06:59;38.28;;;21.17;;
32864;SDS011;19219;44.500;11.188;2023-03-19T06:09:25;35.13;;;20.40;;
32864;SDS011;19219;44.500;11.188;2023-03-19T06:11:51;33.60;;;21.23;;
32864;SDS011;19219;44.500;11.188;2023-03-19T06:14:16;27.98;;;18.92;;
32864;SDS011;19219;44.500;11.188;2023-03-19T06:16:42;34.67;;;19.85;;
32864;SDS011;19219;44.500;11.188;2023-03-19T06:19:07;30.58;;;19.83;;
32864;SDS011;19219;44.500;11.188;2023-03-19T06:21:33;39.17;;;21.52;;
32864;SDS011;19219;44.500;11.188;2023-03-19T06:23:59;51.88;;;24.92;;
32864;SDS011;19219;44.500;11.188;2023-03-19T06:26:25;39.20;;;21.33;;
32864;SDS011;19219;44.500;11.188;2023-03-19T06:28:51;33.80;;;20.98;;
32864;SDS011;19219;44.500;11.188;2023-03-19T06:31:17;32.90;;;18.98;;
32864;SDS011;19219;44.500;11.188;2023-03-19T06:33:42;33.58;;;20.15;;
32864;SDS011;19219;44.500;11.188;2023-03-19T06:36:08;37.55;;;20.90;;
32864;SDS011;19219;44.500;11.188;2023-03-19T06:38:34;32.50;;;19.42;;
32864;SDS011;19219;44.500;11.188;2023-03-19T06:41:00;29.70;;;19.80;;
32864;SDS011;19219;44.500;11.188;2023-03-19T06:43:26;33.38;;;18.90;;
32864;SDS011;19219;44.500;11.188;2023-03-19T06:45:52;28.35;;;18.25;;
32864;SDS011;19219;44.500;11.188;2023-03-19T06:48:18;30.83;;;19.05;;
32864;SDS011;19219;44.500;11.188;2023-03-19T06:50:46;33.38;;;18.75;;
32864;SDS011;19219;44.500;11.188;2023-03-19T06:53:12;33.40;;;20.27;;
32864;SDS011;19219;44.500;11.188;2023-03-19T06:55:38;36.72;;;21.02;;
32864;SDS011;19219;44.500;11.188;2023-03-19T06:58:04;31.08;;;21.48;;
32864;SDS011;19219;44.500;11.188;2023-03-19T07:00:31;37.85;;;22.17;;
32864;SDS011;19219;44.500;11.188;2023-03-19T07:02:57;35.72;;;19.45;;
32864;SDS011;19219;44.500;11.188;2023-03-19T07:05:23;31.13;;;20.02;;
32864;SDS011;19219;44.500;11.188;2023-03-19T07:07:49;36.78;;;22.33;;
32864;SDS011;19219;44.500;11.188;2023-03-19T07:10:18;34.78;;;22.15;;
32864;SDS011;19219;44.500;11.188;2023-03-19T07:12:44;42.58;;;25.23;;
32864;SDS011;19219;44.500;11.188;2023-03-19T07:15:10;41.47;;;24.05;;
32864;SDS011;19219;44.500;11.188;2023-03-19T07:17:36;42.00;;;26.27;;
32864;SDS011;19219;44.500;11.188;2023-03-19T07:20:02;45.67;;;26.35;;
32864;SDS011;19219;44.500;11.188;2023-03-19T07:22:28;66.13;;;38.25;;
32864;SDS011;19219;44.500;11.188;2023-03-19T07:24:53;61.50;;;36.10;;
32864;SDS011;19219;44.500;11.188;2023-03-19T07:27:19;44.55;;;26.45;;
32864;SDS011;19219;44.500;11.188;2023-03-19T07:29:45;40.08;;;25.08;;
32864;SDS011;19219;44.500;11.188;2023-03-19T07:32:10;40.85;;;25.33;;
32864;SDS011;19219;44.500;11.188;2023-03-19T07:34:36;33.45;;;21.73;;
32864;SDS011;19219;44.500;11.188;2023-03-19T07:37:02;38.08;;;26.40;;
32864;SDS011;19219;44.500;11.188;2023-03-19T07:39:27;34.17;;;22.42;;
32864;SDS011;19219;44.500;11.188;2023-03-19T07:41:53;35.78;;;22.08;;
32864;SDS011;19219;44.500;11.188;2023-03-19T07:44:19;32.67;;;21.52;;
32864;SDS011;19219;44.500;11.188;2023-03-19T07:46:45;47.42;;;22.00;;
32864;SDS011;19219;44.500;11.188;2023-03-19T07:49:10;29.33;;;20.08;;
32864;SDS011;19219;44.500;11.188;2023-03-19T07:51:36;32.20;;;21.45;;
32864;SDS011;19219;44.500;11.188;2023-03-19T07:54:02;35.47;;;21.92;;
32864;SDS011;19219;44.500;11.188;2023-03-19T07:56:27;31.63;;;21.10;;
32864;SDS011;19219;44.500;11.188;2023-03-19T07:58:53;32.75;;;21.70;;
32864;SDS011;19219;44.500;11.188;2023-03-19T08:01:19;38.10;;;22.15;;
32864;SDS011;19219;44.500;11.188;2023-03-19T08:03:45;32.67;;;19.70;;
32864;SDS011;19219;44.500;11.188;2023-03-19T08:06:12;33.85;;;21.08;;
32864;SDS011;19219;44.500;11.188;2023-03-19T08:08:38;30.05;;;20.55;;
32864;SDS011;19219;44.500;11.188;2023-03-19T08:11:05;35.97;;;21.85;;
32864;SDS011;19219;44.500;11.188;2023-03-19T08:13:30;35.08;;;21.75;;
32864;SDS011;19219;44.500;11.188;2023-03-19T08:15:56;34.05;;;21.95;;
32864;SDS011;19219;44.500;11.188;2023-03-19T08:18:22;35.08;;;20.80;;
32864;SDS011;19219;44.500;11.188;2023-03-19T08:20:48;39.90;;;22.55;;
32864;SDS011;19219;44.500;11.188;2023-03-19T08:23:14;38.75;;;24.42;;
32864;SDS011;19219;44.500;11.188;2023-03-19T08:25:40;34.72;;;23.40;;
32864;SDS011;19219;44.500;11.188;2023-03-19T08:28:06;35.60;;;22.88;;
32864;SDS011;19219;44.500;11.188;2023-03-19T08:30:34;35.88;;;23.60;;
32864;SDS011;19219;44.500;11.188;2023-03-19T08:33:03;31.88;;;22.30;;
32864;SDS011;19219;44.500;11.188;2023-03-19T08:35:29;34.03;;;23.35;;
32864;SDS011;19219;44.500;11.188;2023-03-19T08:37:55;38.85;;;24.55;;
32864;SDS011;19219;44.500;11.188;2023-03-19T08:40:21;40.78;;;24.95;;
32864;SDS011;19219;44.500;11.188;2023-03-19T08:42:48;39.53;;;24.27;;
32864;SDS011;19219;44.500;11.188;2023-03-19T08:45:13;38.30;;;24.08;;
32864;SDS011;19219;44.500;11.188;2023-03-19T08:47:40;41.10;;;24.02;;
32864;SDS011;19219;44.500;11.188;2023-03-19T08:50:06;37.88;;;24.20;;
32864;SDS011;19219;44.500;11.188;2023-03-19T08:52:32;35.25;;;24.23;;
32864;SDS011;19219;44.500;11.188;2023-03-19T08:54:58;38.35;;;23.25;;
32864;SDS011;19219;44.500;11.188;2023-03-19T08:57:24;36.78;;;23.52;;
32864;SDS011;19219;44.500;11.188;2023-03-19T08:59:51;36.25;;;23.23;;
32864;SDS011;19219;44.500;11.188;2023-03-19T09:02:17;34.15;;;21.92;;
32864;SDS011;19219;44.500;11.188;2023-03-19T09:04:43;36.65;;;23.92;;
32864;SDS011;19219;44.500;11.188;2023-03-19T09:07:09;40.03;;;26.13;;
32864;SDS011;19219;44.500;11.188;2023-03-19T09:09:39;39.22;;;24.27;;
32864;SDS011;19219;44.500;11.188;2023-03-19T09:12:10;38.88;;;24.23;;
32864;SDS011;19219;44.500;11.188;2023-03-19T09:14:38;39.25;;;23.23;;
32864;SDS011;19219;44.500;11.188;2023-03-19T09:17:04;38.50;;;22.05;;
32864;SDS011;19219;44.500;11.188;2023-03-19T09:19:30;38.35;;;22.90;;
32864;SDS011;19219;44.500;11.188;2023-03-19T09:21:57;37.65;;;22.35;;
32864;SDS011;19219;44.500;11.188;2023-03-19T09:24:23;37.17;;;20.65;;
32864;SDS011;19219;44.500;11.188;2023-03-19T09:26:49;35.67;;;23.13;;
32864;SDS011;19219;44.500;11.188;2023-03-19T09:29:14;34.10;;;21.60;;
32864;SDS011;19219;44.500;11.188;2023-03-19T09:31:40;32.58;;;20.20;;
32864;SDS011;19219;44.500;11.188;2023-03-19T09:34:06;34.30;;;23.13;;
32864;SDS011;19219;44.500;11.188;2023-03-19T09:36:33;35.55;;;21.92;;
32864;SDS011;19219;44.500;11.188;2023-03-19T09:39:02;35.78;;;23.90;;
32864;SDS011;19219;44.500;11.188;2023-03-19T09:44:20;37.05;;;23.30;;
32864;SDS011;19219;44.500;11.188;2023-03-19T09:49:56;38.08;;;23.50;;
32864;SDS011;19219;44.500;11.188;2023-03-19T09:52:46;44.58;;;26.50;;
32864;SDS011;19219;44.500;11.188;2023-03-19T09:58:12;35.92;;;22.17;;
32864;SDS011;19219;44.500;11.188;2023-03-19T10:00:52;37.03;;;21.77;;
32864;SDS011;19219;44.500;11.188;2023-03-19T10:16:23;39.63;;;23.95;;
32864;SDS011;19219;44.500;11.188;2023-03-19T10:18:51;32.38;;;21.30;;
32864;SDS011;19219;44.500;11.188;2023-03-19T10:23:56;40.13;;;22.45;;
32864;SDS011;19219;44.500;11.188;2023-03-19T10:26:28;37.10;;;21.15;;
32864;SDS011;19219;44.500;11.188;2023-03-19T10:29:13;38.47;;;22.52;;
32864;SDS011;19219;44.500;11.188;2023-03-19T10:31:48;37.90;;;22.25;;
32864;SDS011;19219;44.500;11.188;2023-03-19T10:36:45;35.58;;;22.88;;
32864;SDS011;19219;44.500;11.188;2023-03-19T10:39:10;44.42;;;24.70;;
32864;SDS011;19219;44.500;11.188;2023-03-19T10:41:59;37.73;;;26.33;;
32864;SDS011;19219;44.500;11.188;2023-03-19T10:44:31;46.88;;;25.50;;
32864;SDS011;19219;44.500;11.188;2023-03-19T10:47:08;40.67;;;25.38;;
32864;SDS011;19219;44.500;11.188;2023-03-19T10:49:35;39.60;;;26.13;;
32864;SDS011;19219;44.500;11.188;2023-03-19T10:52:02;38.13;;;23.48;;
32864;SDS011;19219;44.500;11.188;2023-03-19T10:54:28;41.13;;;24.17;;
32864;SDS011;19219;44.500;11.188;2023-03-19T10:56:55;41.97;;;24.88;;
32864;SDS011;19219;44.500;11.188;2023-03-19T10:59:24;37.50;;;25.65;;
32864;SDS011;19219;44.500;11.188;2023-03-19T11:01:56;40.83;;;25.75;;
32864;SDS011;19219;44.500;11.188;2023-03-19T11:04:23;43.85;;;26.17;;
32864;SDS011;19219;44.500;11.188;2023-03-19T11:06:52;45.90;;;27.45;;
32864;SDS011;19219;44.500;11.188;2023-03-19T11:09:31;40.47;;;25.77;;
32864;SDS011;19219;44.500;11.188;2023-03-19T11:12:33;44.78;;;27.77;;
32864;SDS011;19219;44.500;11.188;2023-03-19T11:15:01;45.22;;;26.17;;
32864;SDS011;19219;44.500;11.188;2023-03-19T11:17:45;50.83;;;28.35;;
32864;SDS011;19219;44.500;11.188;2023-03-19T11:22:56;51.15;;;27.42;;
32864;SDS011;19219;44.500;11.188;2023-03-19T11:25:34;45.70;;;27.45;;
32864;SDS011;19219;44.500;11.188;2023-03-19T11:36:20;39.40;;;27.23;;
32864;SDS011;19219;44.500;11.188;2023-03-19T11:39:18;39.95;;;25.08;;
32864;SDS011;19219;44.500;11.188;2023-03-19T11:50:25;34.78;;;23.20;;
32864;SDS011;19219;44.500;11.188;2023-03-19T11:56:16;30.65;;;21.95;;
32864;SDS011;19219;44.500;11.188;2023-03-19T12:07:12;34.75;;;21.98;;
32864;SDS011;19219;44.500;11.188;2023-03-19T12:15:59;32.13;;;20.08;;
32864;SDS011;19219;44.500;11.188;2023-03-19T12:21:29;51.17;;;29.73;;
32864;SDS011;19219;44.500;11.188;2023-03-19T12:29:41;33.90;;;21.60;;
32864;SDS011;19219;44.500;11.188;2023-03-19T12:35:17;30.73;;;20.67;;
32864;SDS011;19219;44.500;11.188;2023-03-19T12:40:50;31.88;;;19.23;;
32864;SDS011;19219;44.500;11.188;2023-03-19T12:43:35;28.60;;;18.98;;
32864;SDS011;19219;44.500;11.188;2023-03-19T12:46:25;27.80;;;19.05;;
32864;SDS011;19219;44.500;11.188;2023-03-19T12:51:34;26.83;;;18.75;;
32864;SDS011;19219;44.500;11.188;2023-03-19T12:54:06;43.88;;;29.90;;
32864;SDS011;19219;44.500;11.188;2023-03-19T12:56:41;33.55;;;22.15;;
32864;SDS011;19219;44.500;11.188;2023-03-19T12:59:30;22.45;;;14.68;;
32864;SDS011;19219;44.500;11.188;2023-03-19T13:02:25;23.20;;;14.23;;
32864;SDS011;19219;44.500;11.188;2023-03-19T13:08:16;19.60;;;12.35;;
32864;SDS011;19219;44.500;11.188;2023-03-19T13:10:34;23.02;;;13.13;;
32864;SDS011;19219;44.500;11.188;2023-03-19T13:13:00;25.45;;;15.02;;
32864;SDS011;19219;44.500;11.188;2023-03-19T13:15:48;21.63;;;13.43;;
32864;SDS011;19219;44.500;11.188;2023-03-19T13:23:22;20.88;;;14.45;;
32864;SDS011;19219;44.500;11.188;2023-03-19T13:25:51;23.38;;;13.85;;
32864;SDS011;19219;44.500;11.188;2023-03-19T13:28:27;19.00;;;13.30;;
32864;SDS011;19219;44.500;11.188;2023-03-19T13:33:25;21.70;;;13.88;;
32864;SDS011;19219;44.500;11.188;2023-03-19T13:35:52;18.20;;;12.77;;
32864;SDS011;19219;44.500;11.188;2023-03-19T13:38:26;24.00;;;13.10;;
32864;SDS011;19219;44.500;11.188;2023-03-19T13:41:03;19.90;;;12.52;;
32864;SDS011;19219;44.500;11.188;2023-03-19T13:59:35;19.85;;;11.88;;
32864;SDS011;19219;44.500;11.188;2023-03-19T14:04:49;20.10;;;12.02;;
32864;SDS011;19219;44.500;11.188;2023-03-19T14:07:17;20.85;;;13.13;;
32864;SDS011;19219;44.500;11.188;2023-03-19T14:09:49;20.33;;;13.70;;
32864;SDS011;19219;44.500;11.188;2023-03-19T14:12:33;20.83;;;12.02;;
32864;SDS011;19219;44.500;11.188;2023-03-19T14:15:02;21.35;;;11.82;;
32864;SDS011;19219;44.500;11.188;2023-03-19T14:25:13;22.33;;;11.93;;
32864;SDS011;19219;44.500;11.188;2023-03-19T14:27:52;18.45;;;12.32;;
32864;SDS011;19219;44.500;11.188;2023-03-19T14:32:45;16.33;;;10.48;;
32864;SDS011;19219;44.500;11.188;2023-03-19T14:35:14;19.55;;;10.05;;
32864;SDS011;19219;44.500;11.188;2023-03-19T14:37:47;22.20;;;11.45;;
32864;SDS011;19219;44.500;11.188;2023-03-19T14:40:16;15.52;;;10.88;;
32864;SDS011;19219;44.500;11.188;2023-03-19T14:42:54;19.23;;;11.65;;
32864;SDS011;19219;44.500;11.188;2023-03-19T14:45:45;19.30;;;11.77;;
32864;SDS011;19219;44.500;11.188;2023-03-19T14:53:52;16.92;;;10.73;;
32864;SDS011;19219;44.500;11.188;2023-03-19T14:56:29;18.15;;;10.40;;
32864;SDS011;19219;44.500;11.188;2023-03-19T14:58:57;16.10;;;10.60;;
32864;SDS011;19219;44.500;11.188;2023-03-19T15:01:30;21.65;;;12.23;;
32864;SDS011;19219;44.500;11.188;2023-03-19T15:04:02;19.08;;;12.70;;
32864;SDS011;19219;44.500;11.188;2023-03-19T15:06:42;18.23;;;11.68;;
32864;SDS011;19219;44.500;11.188;2023-03-19T15:09:16;20.40;;;12.57;;
32864;SDS011;19219;44.500;11.188;2023-03-19T15:19:47;28.02;;;14.85;;
32864;SDS011;19219;44.500;11.188;2023-03-19T15:22:34;33.03;;;16.30;;
32864;SDS011;19219;44.500;11.188;2023-03-19T15:27:33;20.05;;;13.25;;
32864;SDS011;19219;44.500;11.188;2023-03-19T15:29:58;22.58;;;14.40;;
32864;SDS011;19219;44.500;11.188;2023-03-19T15:32:34;23.35;;;12.95;;
32864;SDS011;19219;44.500;11.188;2023-03-19T15:35:02;25.30;;;13.82;;
32864;SDS011;19219;44.500;11.188;2023-03-19T15:37:29;20.80;;;12.45;;
32864;SDS011;19219;44.500;11.188;2023-03-19T15:40:00;22.05;;;13.30;;
32864;SDS011;19219;44.500;11.188;2023-03-19T15:42:30;21.90;;;14.30;;
32864;SDS011;19219;44.500;11.188;2023-03-19T15:45:06;21.15;;;15.07;;
32864;SDS011;19219;44.500;11.188;2023-03-19T15:47:34;20.88;;;14.25;;
32864;SDS011;19219;44.500;11.188;2023-03-19T15:50:10;22.70;;;14.48;;
32864;SDS011;19219;44.500;11.188;2023-03-19T15:55:07;23.45;;;13.80;;
32864;SDS011;19219;44.500;11.188;2023-03-19T15:57:33;22.65;;;14.40;;
32864;SDS011;19219;44.500;11.188;2023-03-19T16:00:01;24.67;;;13.07;;
32864;SDS011;19219;44.500;11.188;2023-03-19T16:02:29;20.73;;;14.05;;
32864;SDS011;19219;44.500;11.188;2023-03-19T16:04:57;23.50;;;15.77;;
32864;SDS011;19219;44.500;11.188;2023-03-19T16:09:56;23.02;;;15.45;;
32864;SDS011;19219;44.500;11.188;2023-03-19T16:15:18;24.70;;;14.93;;
32864;SDS011;19219;44.500;11.188;2023-03-19T16:17:45;23.10;;;16.40;;
32864;SDS011;19219;44.500;11.188;2023-03-19T16:20:13;26.23;;;16.48;;
32864;SDS011;19219;44.500;11.188;2023-03-19T16:22:39;22.08;;;16.52;;
32864;SDS011;19219;44.500;11.188;2023-03-19T16:25:16;26.00;;;17.20;;
32864;SDS011;19219;44.500;11.188;2023-03-19T16:27:43;28.85;;;17.50;;
32864;SDS011;19219;44.500;11.188;2023-03-19T16:32:45;29.88;;;18.42;;
32864;SDS011;19219;44.500;11.188;2023-03-19T16:35:22;29.48;;;20.80;;
32864;SDS011;19219;44.500;11.188;2023-03-19T16:37:49;30.08;;;19.00;;
32864;SDS011;19219;44.500;11.188;2023-03-19T16:42:44;29.73;;;19.25;;
32864;SDS011;19219;44.500;11.188;2023-03-19T16:47:54;31.02;;;18.92;;
32864;SDS011;19219;44.500;11.188;2023-03-19T16:50:42;29.92;;;17.20;;
32864;SDS011;19219;44.500;11.188;2023-03-19T16:53:24;26.30;;;18.23;;